Flight Track Log - Related Links

Times and Time Zones

All times are in EST time to prevent confusion due to time zone crossing. See the SWA1130 flight status page for this flight to view local times or setup timezone preferences in your user account.

Time Position Orientation Groundspeed Altitude Reporting Facility
EST Latitude Longitude Course Direction KTS MPH feet Rate Location/Type
Thu 08:08:19 PM 36.0767 -115.2106 269° West 181 208 4,100  Level Los Angeles Center
Thu 08:09:08 PM 36.0561 -115.2611 243° Southwest 226 260 5,800 2,111 Climbing Los Angeles Center
Thu 08:09:13 PM 36.0481 -115.2678 214° Southwest 246 283 6,000 1,161 Climbing Los Angeles Center
Thu 08:10:10 PM 35.9794 -115.2978 199° South 279 321 7,000 984 Climbing Los Angeles Center
Thu 08:10:14 PM 35.9736 -115.3028 215° Southwest 283 326 7,000 194 Level Los Angeles Center
Thu 08:11:12 PM 35.9211 -115.3617 222° Southwest 281 323 7,200 1,934 Climbing Los Angeles Center
Thu 08:12:15 PM 35.8861 -115.4458 243° Southwest 270 311 10,900 1,824 Climbing Los Angeles Center
Thu 08:13:17 PM 35.8889 -115.5572 272° West 323 372 11,000 145 Climbing Los Angeles Center
Thu 08:14:19 PM 35.8903 -115.6739 271° West 338 389 11,200 2,032 Climbing Los Angeles Center
Thu 08:15:21 PM 35.8925 -115.8017 271° West 348 400 15,200 3,677 Climbing Los Angeles Center
Thu 08:16:23 PM 35.8944 -115.9217 271° West 349 402 18,800 3,097 Climbing Los Angeles Center
Thu 08:17:25 PM 35.9453 -116.0269 301° West 352 405 21,600 2,516 Climbing Los Angeles Center
Thu 08:18:27 PM 36.0253 -116.1208 317° Northwest 372 428 24,000 2,226 Climbing Los Angeles Center
Thu 08:19:29 PM 36.1036 -116.2122 317° Northwest 383 441 26,200 2,112 Climbing Los Angeles Center
Thu 08:20:32 PM 36.1850 -116.3042 318° Northwest 393 452 28,400 2,400 Climbing Los Angeles Center
Thu 08:21:34 PM 36.2667 -116.3986 317° Northwest 400 460 31,200 2,565 Climbing Los Angeles Center
Thu 08:22:36 PM 36.3425 -116.4858 317° Northwest 386 444 33,700 1,355 Climbing Los Angeles Center
Thu 08:23:38 PM 36.4156 -116.5708 317° Northwest 370 426 34,000 145 Climbing Los Angeles Center
Thu 08:24:40 PM 36.4892 -116.6569 317° Northwest 365 420 34,000  Level Los Angeles Center
Thu 08:25:42 PM 36.5786 -116.7594 317° Northwest 362 417 34,000  Level Los Angeles Center
Thu 08:26:44 PM 36.6664 -116.8258 329° Northwest 368 423 34,000  Level Los Angeles Center
Thu 08:27:46 PM 36.7506 -116.8886 329° Northwest 367 422 34,000  Level Los Angeles Center
Thu 08:28:48 PM 36.8403 -116.9586 328° Northwest 366 421 34,000  Level Los Angeles Center
Thu 08:29:51 PM 36.9261 -117.0228 329° Northwest 360 414 34,000  Level Los Angeles Center
Thu 08:30:53 PM 37.0114 -117.0897 328° Northwest 359 413 34,000  Level Los Angeles Center
Thu 08:31:55 PM 37.1136 -117.1681 329° Northwest 357 411 34,000  Level Los Angeles Center
Thu 08:32:57 PM 37.2000 -117.2342 329° Northwest 364 419 34,000  Level Los Angeles Center
Thu 08:33:59 PM 37.2853 -117.3014 328° Northwest 363 418 34,000 -194 Level Los Angeles Center
Thu 08:35:01 PM 37.3633 -117.3814 321° Northwest 362 417 33,600 -677 Descending Los Angeles Center
Thu 08:36:03 PM 37.4386 -117.4625 319° Northwest 358 412 32,600 -968 Descending Los Angeles Center
Thu 08:37:05 PM 37.5111 -117.5456 318° Northwest 354 407 31,600 -968 Descending Los Angeles Center
Thu 08:38:07 PM 37.5719 -117.6444 308° West 357 411 30,600 -768 Descending Los Angeles Center
Thu 08:39:10 PM 37.6475 -117.7656 308° West 363 418 30,000 -768 Descending Los Angeles Center
Thu 08:40:12 PM 37.7097 -117.8636 309° West 356 410 29,000 -968 Descending Los Angeles Center
Thu 08:41:14 PM 37.7686 -117.9581 308° West 346 398 28,000 -947 Descending Los Angeles Center
Thu 08:42:25 PM 37.8381 -118.0722 308° West 345 397 26,900 -909 Descending Oakland Center
Thu 08:43:26 PM 37.8983 -118.1692 308° West 348 400 26,000 -443 Descending Oakland Center
Thu 08:44:27 PM 37.9594 -118.2692 308° West 355 409 26,000  Level Oakland Center
Thu 08:45:29 PM 38.0189 -118.3664 308° West 350 403 26,000  Level Oakland Center
Thu 08:46:30 PM 38.0775 -118.4608 308° West 343 395 26,000  Level Oakland Center
Thu 08:47:31 PM 38.1336 -118.5525 308° West 343 395 26,000  Level Oakland Center
Thu 08:48:33 PM 38.2064 -118.6739 307° West 356 410 26,000  Level Oakland Center
Thu 08:49:34 PM 38.2642 -118.7692 308° West 345 397 26,000 -344 Level Oakland Center
Thu 08:50:35 PM 38.3228 -118.8647 308° West 341 392 25,300 -878 Descending Oakland Center
Thu 08:51:37 PM 38.3753 -118.9539 307° West 321 369 24,200 -634 Descending Oakland Center
Thu 08:52:38 PM 38.4256 -119.0367 308° West 299 344 24,000 -98 Descending Oakland Center
Thu 08:53:40 PM 38.4758 -119.1211 307° West 298 343 24,000  Level Oakland Center
Thu 08:54:41 PM 38.5256 -119.2081 306° West 301 346 24,000 -295 Level Oakland Center
Thu 08:55:42 PM 38.5719 -119.2978 303° West 302 348 23,400 -829 Descending Oakland Center
Thu 08:56:44 PM 38.6131 -119.3772 304° West 279 321 22,300 -1,024 Descending Oakland Center
Thu 08:57:45 PM 38.6500 -119.4514 303° West 254 292 21,300 -1,076 Descending Oakland Center
Thu 08:59:48 PM 38.7300 -119.6067 303° West 235 270 19,000 -1,043 Descending Oakland Center
Thu 09:00:49 PM 38.7644 -119.6731 304° West 226 260 18,100 -780 Descending Oakland Center
Thu 09:01:51 PM 38.8047 -119.7500 304° West 254 292 17,400 -976 Descending Oakland Center
Thu 09:02:52 PM 38.8831 -119.7708 348° North 292 336 16,100 -1,475 Descending Oakland Center
Thu 09:03:53 PM 38.9703 -119.7708 360° North 307 353 14,400 -1,016 Descending Oakland Center
Thu 09:04:56 PM 39.0553 -119.7714 360° North 309 356 14,000 -634 Descending Oakland Center
Thu 09:05:56 PM 39.1278 -119.7714 360° North 281 323 13,100 -1,230 Descending Oakland Center
Thu 09:06:58 PM 39.2011 -119.7725 359° North 266 306 11,500 -878 Descending Oakland Center
Thu 09:07:59 PM 39.2719 -119.7578 North 264 304 11,300 -390 Descending Oakland Center
Thu 09:09:01 PM 39.2883 -119.6736 76° East 252 290 10,700 -976 Descending Oakland Center
Thu 09:10:02 PM 39.2258 -119.6717 179° South 225 259 9,300 -787 Descending Oakland Center
Thu 09:11:03 PM 39.2261 -119.7336 270° West 192 221 9,100 -98 Descending Oakland Center
Thu 09:12:05 PM 39.2742 -119.7664 332° Northwest 194 223 9,100 -390 Level Oakland Center
Thu 09:13:06 PM 39.3303 -119.7681 359° North 192 221 8,300 -1,161 Descending Oakland Center
Thu 09:14:40 PM 39.4167 -119.7667 North 186 214 6,100 -1,208 Descending Northern Cal TRACON
Thu 09:15:40 PM 39.4500 -119.7667 360° North 154 177 5,200 -900 Descending Northern Cal TRACON
Thu 09:17:00 PM 39.4833 -119.7667 North  Level FlightAware Approximate
Thu 09:24:00 PM 39.4991 -119.7681 North  Level Estimated

Login

Don't have an account? Register now (free) for customized features, flight alerts, and more!